sensor_id;sensor_type;location;lat;lon;timestamp;P1;durP1;ratioP1;P2;durP2;ratioP2
24559;SDS011;12727;49.934;8.656;2023-06-05T00:01:36;2.83;;;1.60;;
24559;SDS011;12727;49.934;8.656;2023-06-05T00:04:03;2.22;;;0.98;;
24559;SDS011;12727;49.934;8.656;2023-06-05T00:06:29;2.70;;;1.00;;
24559;SDS011;12727;49.934;8.656;2023-06-05T00:08:55;1.95;;;0.93;;
24559;SDS011;12727;49.934;8.656;2023-06-05T00:11:20;3.92;;;1.70;;
24559;SDS011;12727;49.934;8.656;2023-06-05T00:13:46;1.83;;;0.90;;
24559;SDS011;12727;49.934;8.656;2023-06-05T00:16:12;1.63;;;1.08;;
24559;SDS011;12727;49.934;8.656;2023-06-05T00:18:38;2.20;;;0.88;;
24559;SDS011;12727;49.934;8.656;2023-06-05T00:21:03;3.75;;;1.48;;
24559;SDS011;12727;49.934;8.656;2023-06-05T00:23:29;2.28;;;1.38;;
24559;SDS011;12727;49.934;8.656;2023-06-05T00:25:54;3.55;;;0.90;;
24559;SDS011;12727;49.934;8.656;2023-06-05T00:28:20;4.57;;;1.42;;
24559;SDS011;12727;49.934;8.656;2023-06-05T00:30:45;3.80;;;1.17;;
24559;SDS011;12727;49.934;8.656;2023-06-05T00:33:11;2.78;;;1.10;;
24559;SDS011;12727;49.934;8.656;2023-06-05T00:35:37;1.83;;;1.17;;
24559;SDS011;12727;49.934;8.656;2023-06-05T00:38:03;2.35;;;1.08;;
24559;SDS011;12727;49.934;8.656;2023-06-05T00:40:31;1.92;;;1.00;;
24559;SDS011;12727;49.934;8.656;2023-06-05T00:42:57;1.85;;;1.10;;
24559;SDS011;12727;49.934;8.656;2023-06-05T00:45:22;2.13;;;1.10;;
24559;SDS011;12727;49.934;8.656;2023-06-05T00:47:48;2.42;;;1.08;;
24559;SDS011;12727;49.934;8.656;2023-06-05T00:50:14;2.00;;;0.88;;
24559;SDS011;12727;49.934;8.656;2023-06-05T00:52:42;2.42;;;1.20;;
24559;SDS011;12727;49.934;8.656;2023-06-05T00:55:09;2.50;;;1.05;;
24559;SDS011;12727;49.934;8.656;2023-06-05T00:57:36;1.42;;;0.90;;
24559;SDS011;12727;49.934;8.656;2023-06-05T01:00:04;1.92;;;1.30;;
24559;SDS011;12727;49.934;8.656;2023-06-05T01:02:32;3.30;;;0.90;;
24559;SDS011;12727;49.934;8.656;2023-06-05T01:04:59;1.90;;;1.10;;
24559;SDS011;12727;49.934;8.656;2023-06-05T01:07:25;2.38;;;1.10;;
24559;SDS011;12727;49.934;8.656;2023-06-05T01:09:52;2.50;;;1.35;;
24559;SDS011;12727;49.934;8.656;2023-06-05T01:14:50;2.65;;;1.20;;
24559;SDS011;12727;49.934;8.656;2023-06-05T01:17:17;3.05;;;1.67;;
24559;SDS011;12727;49.934;8.656;2023-06-05T01:19:44;3.63;;;1.00;;
24559;SDS011;12727;49.934;8.656;2023-06-05T01:22:10;2.40;;;0.98;;
24559;SDS011;12727;49.934;8.656;2023-06-05T01:24:37;1.77;;;0.98;;
24559;SDS011;12727;49.934;8.656;2023-06-05T01:27:12;3.47;;;1.00;;
24559;SDS011;12727;49.934;8.656;2023-06-05T01:29:50;2.63;;;1.27;;
24559;SDS011;12727;49.934;8.656;2023-06-05T01:32:27;1.55;;;0.98;;
24559;SDS011;12727;49.934;8.656;2023-06-05T01:35:01;2.30;;;1.10;;
24559;SDS011;12727;49.934;8.656;2023-06-05T01:37:34;4.82;;;1.17;;
24559;SDS011;12727;49.934;8.656;2023-06-05T01:40:16;1.70;;;1.00;;
24559;SDS011;12727;49.934;8.656;2023-06-05T01:42:44;3.08;;;1.00;;
24559;SDS011;12727;49.934;8.656;2023-06-05T01:45:11;4.07;;;1.40;;
24559;SDS011;12727;49.934;8.656;2023-06-05T01:47:38;2.58;;;1.10;;
24559;SDS011;12727;49.934;8.656;2023-06-05T01:50:04;4.82;;;1.20;;
24559;SDS011;12727;49.934;8.656;2023-06-05T01:52:31;2.65;;;1.15;;
24559;SDS011;12727;49.934;8.656;2023-06-05T01:54:57;3.40;;;1.20;;
24559;SDS011;12727;49.934;8.656;2023-06-05T01:57:26;5.88;;;1.00;;
24559;SDS011;12727;49.934;8.656;2023-06-05T01:59:55;1.63;;;1.00;;
24559;SDS011;12727;49.934;8.656;2023-06-05T02:02:21;3.85;;;1.25;;
24559;SDS011;12727;49.934;8.656;2023-06-05T02:04:49;1.95;;;0.98;;
24559;SDS011;12727;49.934;8.656;2023-06-05T02:07:15;1.92;;;1.20;;
24559;SDS011;12727;49.934;8.656;2023-06-05T02:09:41;2.78;;;1.00;;
24559;SDS011;12727;49.934;8.656;2023-06-05T02:12:06;1.98;;;1.10;;
24559;SDS011;12727;49.934;8.656;2023-06-05T02:14:32;1.98;;;1.10;;
24559;SDS011;12727;49.934;8.656;2023-06-05T02:17:00;6.07;;;1.58;;
24559;SDS011;12727;49.934;8.656;2023-06-05T02:19:34;1.77;;;1.00;;
24559;SDS011;12727;49.934;8.656;2023-06-05T02:22:00;1.60;;;0.95;;
24559;SDS011;12727;49.934;8.656;2023-06-05T02:24:26;1.90;;;1.10;;
24559;SDS011;12727;49.934;8.656;2023-06-05T02:26:52;4.50;;;0.80;;
24559;SDS011;12727;49.934;8.656;2023-06-05T02:29:17;2.03;;;1.30;;
24559;SDS011;12727;49.934;8.656;2023-06-05T02:31:43;2.35;;;1.25;;
24559;SDS011;12727;49.934;8.656;2023-06-05T02:34:09;1.42;;;0.82;;
24559;SDS011;12727;49.934;8.656;2023-06-05T02:36:34;5.97;;;1.00;;
24559;SDS011;12727;49.934;8.656;2023-06-05T02:39:00;1.23;;;0.90;;
24559;SDS011;12727;49.934;8.656;2023-06-05T02:41:32;5.57;;;1.33;;
24559;SDS011;12727;49.934;8.656;2023-06-05T02:43:57;1.95;;;1.10;;
24559;SDS011;12727;49.934;8.656;2023-06-05T02:46:24;1.90;;;1.00;;
24559;SDS011;12727;49.934;8.656;2023-06-05T02:48:53;2.08;;;0.98;;
24559;SDS011;12727;49.934;8.656;2023-06-05T02:51:18;2.10;;;1.10;;
24559;SDS011;12727;49.934;8.656;2023-06-05T02:53:44;1.48;;;0.90;;
24559;SDS011;12727;49.934;8.656;2023-06-05T02:56:10;1.98;;;1.08;;
24559;SDS011;12727;49.934;8.656;2023-06-05T02:58:35;1.67;;;0.90;;
24559;SDS011;12727;49.934;8.656;2023-06-05T03:01:02;2.35;;;1.00;;
24559;SDS011;12727;49.934;8.656;2023-06-05T03:03:28;1.77;;;0.90;;
24559;SDS011;12727;49.934;8.656;2023-06-05T03:05:56;3.35;;;1.10;;
24559;SDS011;12727;49.934;8.656;2023-06-05T03:08:29;2.70;;;1.20;;
24559;SDS011;12727;49.934;8.656;2023-06-05T03:10:59;4.63;;;1.15;;
24559;SDS011;12727;49.934;8.656;2023-06-05T03:13:25;3.28;;;1.05;;
24559;SDS011;12727;49.934;8.656;2023-06-05T03:15:50;3.15;;;1.00;;
24559;SDS011;12727;49.934;8.656;2023-06-05T03:18:18;3.83;;;1.00;;
24559;SDS011;12727;49.934;8.656;2023-06-05T03:20:46;2.08;;;1.08;;
24559;SDS011;12727;49.934;8.656;2023-06-05T03:23:12;2.30;;;1.15;;
24559;SDS011;12727;49.934;8.656;2023-06-05T03:25:38;2.30;;;1.00;;
24559;SDS011;12727;49.934;8.656;2023-06-05T03:28:04;1.83;;;0.95;;
24559;SDS011;12727;49.934;8.656;2023-06-05T03:30:29;3.20;;;1.02;;
24559;SDS011;12727;49.934;8.656;2023-06-05T03:32:55;3.78;;;1.10;;
24559;SDS011;12727;49.934;8.656;2023-06-05T03:35:20;1.45;;;1.00;;
24559;SDS011;12727;49.934;8.656;2023-06-05T03:37:46;3.03;;;1.10;;
24559;SDS011;12727;49.934;8.656;2023-06-05T03:40:11;2.00;;;0.80;;
24559;SDS011;12727;49.934;8.656;2023-06-05T03:42:37;3.53;;;1.00;;
24559;SDS011;12727;49.934;8.656;2023-06-05T03:45:03;2.10;;;1.05;;
24559;SDS011;12727;49.934;8.656;2023-06-05T03:47:29;2.78;;;0.90;;
24559;SDS011;12727;49.934;8.656;2023-06-05T03:49:59;2.83;;;1.23;;
24559;SDS011;12727;49.934;8.656;2023-06-05T03:52:25;5.10;;;1.25;;
24559;SDS011;12727;49.934;8.656;2023-06-05T03:54:51;4.63;;;1.30;;
24559;SDS011;12727;49.934;8.656;2023-06-05T03:57:20;1.35;;;0.98;;
24559;SDS011;12727;49.934;8.656;2023-06-05T03:59:46;3.75;;;1.10;;
24559;SDS011;12727;49.934;8.656;2023-06-05T04:02:12;2.05;;;1.02;;
24559;SDS011;12727;49.934;8.656;2023-06-05T04:04:38;4.97;;;1.33;;
24559;SDS011;12727;49.934;8.656;2023-06-05T04:07:03;4.18;;;1.20;;
24559;SDS011;12727;49.934;8.656;2023-06-05T04:09:30;3.28;;;1.10;;
24559;SDS011;12727;49.934;8.656;2023-06-05T04:11:56;1.40;;;1.00;;
24559;SDS011;12727;49.934;8.656;2023-06-05T04:14:22;3.58;;;1.30;;
24559;SDS011;12727;49.934;8.656;2023-06-05T04:16:48;3.17;;;1.10;;
24559;SDS011;12727;49.934;8.656;2023-06-05T04:19:13;1.70;;;1.00;;
24559;SDS011;12727;49.934;8.656;2023-06-05T04:21:40;1.50;;;1.02;;
24559;SDS011;12727;49.934;8.656;2023-06-05T04:24:06;3.13;;;0.90;;
24559;SDS011;12727;49.934;8.656;2023-06-05T04:26:34;5.22;;;1.27;;
24559;SDS011;12727;49.934;8.656;2023-06-05T04:29:06;4.43;;;1.08;;
24559;SDS011;12727;49.934;8.656;2023-06-05T04:31:38;4.93;;;1.05;;
24559;SDS011;12727;49.934;8.656;2023-06-05T04:34:05;1.90;;;1.15;;
24559;SDS011;12727;49.934;8.656;2023-06-05T04:36:32;1.88;;;1.13;;
24559;SDS011;12727;49.934;8.656;2023-06-05T04:38:59;2.97;;;1.13;;
24559;SDS011;12727;49.934;8.656;2023-06-05T04:41:26;1.90;;;1.10;;
24559;SDS011;12727;49.934;8.656;2023-06-05T04:43:54;4.68;;;1.02;;
24559;SDS011;12727;49.934;8.656;2023-06-05T04:46:22;3.47;;;0.90;;
24559;SDS011;12727;49.934;8.656;2023-06-05T04:48:48;2.33;;;0.95;;
24559;SDS011;12727;49.934;8.656;2023-06-05T04:51:13;1.60;;;1.05;;
24559;SDS011;12727;49.934;8.656;2023-06-05T04:53:39;3.63;;;1.10;;
24559;SDS011;12727;49.934;8.656;2023-06-05T04:56:06;2.50;;;0.98;;
24559;SDS011;12727;49.934;8.656;2023-06-05T04:58:32;2.10;;;1.10;;
24559;SDS011;12727;49.934;8.656;2023-06-05T05:00:58;1.75;;;0.90;;
24559;SDS011;12727;49.934;8.656;2023-06-05T05:03:30;2.72;;;1.10;;
24559;SDS011;12727;49.934;8.656;2023-06-05T05:05:56;2.47;;;1.02;;
24559;SDS011;12727;49.934;8.656;2023-06-05T05:08:21;1.95;;;1.15;;
24559;SDS011;12727;49.934;8.656;2023-06-05T05:10:47;1.58;;;0.80;;
24559;SDS011;12727;49.934;8.656;2023-06-05T05:13:13;2.90;;;0.98;;
24559;SDS011;12727;49.934;8.656;2023-06-05T05:15:38;1.85;;;1.20;;
24559;SDS011;12727;49.934;8.656;2023-06-05T05:18:04;2.78;;;1.30;;
24559;SDS011;12727;49.934;8.656;2023-06-05T05:20:30;4.07;;;1.25;;
24559;SDS011;12727;49.934;8.656;2023-06-05T05:22:57;4.90;;;1.30;;
24559;SDS011;12727;49.934;8.656;2023-06-05T05:25:24;3.17;;;1.00;;
24559;SDS011;12727;49.934;8.656;2023-06-05T05:27:50;2.70;;;1.00;;
24559;SDS011;12727;49.934;8.656;2023-06-05T05:30:16;4.47;;;1.40;;
24559;SDS011;12727;49.934;8.656;2023-06-05T05:32:41;2.28;;;1.27;;
24559;SDS011;12727;49.934;8.656;2023-06-05T05:35:07;1.90;;;1.30;;
24559;SDS011;12727;49.934;8.656;2023-06-05T05:37:33;2.28;;;1.35;;
24559;SDS011;12727;49.934;8.656;2023-06-05T05:39:58;3.15;;;1.00;;
24559;SDS011;12727;49.934;8.656;2023-06-05T05:42:24;1.77;;;1.30;;
24559;SDS011;12727;49.934;8.656;2023-06-05T05:44:49;2.58;;;1.00;;
24559;SDS011;12727;49.934;8.656;2023-06-05T05:47:15;1.70;;;1.00;;
24559;SDS011;12727;49.934;8.656;2023-06-05T05:49:40;2.22;;;1.02;;
24559;SDS011;12727;49.934;8.656;2023-06-05T05:52:06;2.75;;;1.20;;
24559;SDS011;12727;49.934;8.656;2023-06-05T05:54:31;2.35;;;1.00;;
24559;SDS011;12727;49.934;8.656;2023-06-05T05:56:57;2.40;;;1.00;;
24559;SDS011;12727;49.934;8.656;2023-06-05T05:59:22;2.22;;;1.15;;
24559;SDS011;12727;49.934;8.656;2023-06-05T06:01:48;3.55;;;1.00;;
24559;SDS011;12727;49.934;8.656;2023-06-05T06:04:17;3.17;;;1.20;;
24559;SDS011;12727;49.934;8.656;2023-06-05T06:06:43;2.75;;;1.00;;
24559;SDS011;12727;49.934;8.656;2023-06-05T06:09:13;2.25;;;1.05;;
24559;SDS011;12727;49.934;8.656;2023-06-05T06:11:40;2.00;;;1.33;;
24559;SDS011;12727;49.934;8.656;2023-06-05T06:14:06;2.83;;;0.95;;
24559;SDS011;12727;49.934;8.656;2023-06-05T06:16:35;3.83;;;1.02;;
24559;SDS011;12727;49.934;8.656;2023-06-05T06:19:01;1.65;;;1.00;;
24559;SDS011;12727;49.934;8.656;2023-06-05T06:21:27;1.98;;;1.23;;
24559;SDS011;12727;49.934;8.656;2023-06-05T06:23:52;2.08;;;0.93;;
24559;SDS011;12727;49.934;8.656;2023-06-05T06:26:19;2.38;;;0.90;;
24559;SDS011;12727;49.934;8.656;2023-06-05T06:28:45;2.65;;;1.08;;
24559;SDS011;12727;49.934;8.656;2023-06-05T06:31:10;1.90;;;1.10;;
24559;SDS011;12727;49.934;8.656;2023-06-05T06:33:36;3.75;;;1.25;;
24559;SDS011;12727;49.934;8.656;2023-06-05T06:36:03;3.15;;;1.00;;
24559;SDS011;12727;49.934;8.656;2023-06-05T06:38:28;2.40;;;1.20;;
24559;SDS011;12727;49.934;8.656;2023-06-05T06:40:56;1.73;;;1.08;;
24559;SDS011;12727;49.934;8.656;2023-06-05T06:43:22;2.72;;;1.10;;
24559;SDS011;12727;49.934;8.656;2023-06-05T06:45:48;3.55;;;1.15;;
24559;SDS011;12727;49.934;8.656;2023-06-05T06:48:15;1.40;;;1.00;;
24559;SDS011;12727;49.934;8.656;2023-06-05T06:50:42;2.13;;;1.17;;
24559;SDS011;12727;49.934;8.656;2023-06-05T06:53:07;1.75;;;1.00;;
24559;SDS011;12727;49.934;8.656;2023-06-05T06:55:33;2.35;;;1.00;;
24559;SDS011;12727;49.934;8.656;2023-06-05T06:57:59;2.13;;;1.10;;
24559;SDS011;12727;49.934;8.656;2023-06-05T07:00:25;2.55;;;1.10;;
24559;SDS011;12727;49.934;8.656;2023-06-05T07:02:50;3.45;;;1.13;;
24559;SDS011;12727;49.934;8.656;2023-06-05T07:05:16;2.78;;;1.25;;
24559;SDS011;12727;49.934;8.656;2023-06-05T07:07:44;2.60;;;1.08;;
24559;SDS011;12727;49.934;8.656;2023-06-05T07:10:10;2.30;;;1.33;;
24559;SDS011;12727;49.934;8.656;2023-06-05T07:12:35;1.65;;;1.00;;
24559;SDS011;12727;49.934;8.656;2023-06-05T07:15:01;2.80;;;1.15;;
24559;SDS011;12727;49.934;8.656;2023-06-05T07:17:27;3.70;;;1.13;;
24559;SDS011;12727;49.934;8.656;2023-06-05T07:19:55;2.45;;;1.13;;
24559;SDS011;12727;49.934;8.656;2023-06-05T07:22:21;2.53;;;1.10;;
24559;SDS011;12727;49.934;8.656;2023-06-05T07:24:46;2.20;;;1.02;;
24559;SDS011;12727;49.934;8.656;2023-06-05T07:27:13;4.88;;;1.10;;
24559;SDS011;12727;49.934;8.656;2023-06-05T07:29:40;1.88;;;1.00;;
24559;SDS011;12727;49.934;8.656;2023-06-05T07:32:05;3.00;;;1.05;;
24559;SDS011;12727;49.934;8.656;2023-06-05T07:34:32;3.10;;;0.90;;
24559;SDS011;12727;49.934;8.656;2023-06-05T07:36:58;2.58;;;1.00;;
24559;SDS011;12727;49.934;8.656;2023-06-05T07:39:24;1.38;;;0.70;;
24559;SDS011;12727;49.934;8.656;2023-06-05T07:41:50;2.40;;;1.23;;
24559;SDS011;12727;49.934;8.656;2023-06-05T07:44:17;2.25;;;1.00;;
24559;SDS011;12727;49.934;8.656;2023-06-05T07:46:44;2.22;;;1.02;;
24559;SDS011;12727;49.934;8.656;2023-06-05T07:49:11;2.80;;;1.30;;
24559;SDS011;12727;49.934;8.656;2023-06-05T07:51:37;2.67;;;1.15;;
24559;SDS011;12727;49.934;8.656;2023-06-05T07:54:04;3.83;;;1.50;;
24559;SDS011;12727;49.934;8.656;2023-06-05T07:56:31;2.72;;;1.10;;
24559;SDS011;12727;49.934;8.656;2023-06-05T07:58:58;2.03;;;0.80;;
24559;SDS011;12727;49.934;8.656;2023-06-05T08:01:28;3.95;;;1.48;;
24559;SDS011;12727;49.934;8.656;2023-06-05T08:03:54;2.58;;;1.27;;
24559;SDS011;12727;49.934;8.656;2023-06-05T08:06:20;2.00;;;1.30;;
24559;SDS011;12727;49.934;8.656;2023-06-05T08:08:46;1.98;;;1.30;;
24559;SDS011;12727;49.934;8.656;2023-06-05T08:11:11;2.35;;;1.20;;
24559;SDS011;12727;49.934;8.656;2023-06-05T08:13:37;2.42;;;1.15;;
24559;SDS011;12727;49.934;8.656;2023-06-05T08:16:06;1.88;;;1.30;;
24559;SDS011;12727;49.934;8.656;2023-06-05T08:18:31;3.17;;;1.10;;
24559;SDS011;12727;49.934;8.656;2023-06-05T08:20:57;2.63;;;1.30;;
24559;SDS011;12727;49.934;8.656;2023-06-05T08:23:23;3.30;;;1.17;;
24559;SDS011;12727;49.934;8.656;2023-06-05T08:25:49;2.53;;;1.27;;
24559;SDS011;12727;49.934;8.656;2023-06-05T08:28:15;2.40;;;1.50;;
24559;SDS011;12727;49.934;8.656;2023-06-05T08:30:41;5.50;;;1.30;;
24559;SDS011;12727;49.934;8.656;2023-06-05T08:33:07;4.13;;;1.40;;
24559;SDS011;12727;49.934;8.656;2023-06-05T08:35:32;3.65;;;1.30;;
24559;SDS011;12727;49.934;8.656;2023-06-05T08:37:58;3.17;;;1.30;;
24559;SDS011;12727;49.934;8.656;2023-06-05T08:40:25;4.32;;;1.25;;
24559;SDS011;12727;49.934;8.656;2023-06-05T08:42:53;2.10;;;1.48;;
24559;SDS011;12727;49.934;8.656;2023-06-05T08:45:19;2.17;;;1.23;;
24559;SDS011;12727;49.934;8.656;2023-06-05T08:47:45;2.65;;;1.35;;
24559;SDS011;12727;49.934;8.656;2023-06-05T08:50:15;3.10;;;1.42;;
24559;SDS011;12727;49.934;8.656;2023-06-05T08:52:41;2.33;;;1.25;;
24559;SDS011;12727;49.934;8.656;2023-06-05T08:55:08;2.78;;;1.20;;
24559;SDS011;12727;49.934;8.656;2023-06-05T08:57:35;2.45;;;1.63;;
24559;SDS011;12727;49.934;8.656;2023-06-05T09:00:04;2.65;;;1.30;;
24559;SDS011;12727;49.934;8.656;2023-06-05T09:02:36;3.20;;;1.42;;
24559;SDS011;12727;49.934;8.656;2023-06-05T09:05:04;2.05;;;1.35;;
24559;SDS011;12727;49.934;8.656;2023-06-05T09:07:29;2.33;;;1.52;;
24559;SDS011;12727;49.934;8.656;2023-06-05T09:09:56;2.70;;;1.73;;
24559;SDS011;12727;49.934;8.656;2023-06-05T09:12:22;2.63;;;1.73;;
24559;SDS011;12727;49.934;8.656;2023-06-05T09:14:49;3.72;;;1.77;;
24559;SDS011;12727;49.934;8.656;2023-06-05T09:17:15;2.45;;;1.70;;
24559;SDS011;12727;49.934;8.656;2023-06-05T09:19:42;2.47;;;1.73;;
24559;SDS011;12727;49.934;8.656;2023-06-05T09:22:10;4.97;;;1.77;;
24559;SDS011;12727;49.934;8.656;2023-06-05T09:24:37;3.90;;;1.70;;
24559;SDS011;12727;49.934;8.656;2023-06-05T09:27:04;5.13;;;1.60;;
24559;SDS011;12727;49.934;8.656;2023-06-05T09:31:58;3.20;;;1.65;;
24559;SDS011;12727;49.934;8.656;2023-06-05T09:34:32;2.20;;;1.50;;
24559;SDS011;12727;49.934;8.656;2023-06-05T09:37:05;3.25;;;1.80;;
24559;SDS011;12727;49.934;8.656;2023-06-05T09:39:33;3.60;;;1.50;;
24559;SDS011;12727;49.934;8.656;2023-06-05T09:41:59;2.30;;;1.45;;
24559;SDS011;12727;49.934;8.656;2023-06-05T09:44:26;5.15;;;1.75;;
24559;SDS011;12727;49.934;8.656;2023-06-05T09:46:57;5.40;;;1.60;;
24559;SDS011;12727;49.934;8.656;2023-06-05T09:52:05;2.80;;;1.73;;
24559;SDS011;12727;49.934;8.656;2023-06-05T09:54:36;3.33;;;1.58;;
24559;SDS011;12727;49.934;8.656;2023-06-05T09:57:03;1.73;;;1.40;;
24559;SDS011;12727;49.934;8.656;2023-06-05T09:59:31;3.30;;;1.48;;
24559;SDS011;12727;49.934;8.656;2023-06-05T10:02:02;2.08;;;1.40;;
24559;SDS011;12727;49.934;8.656;2023-06-05T10:04:29;4.82;;;1.63;;
24559;SDS011;12727;49.934;8.656;2023-06-05T10:07:03;2.85;;;1.13;;
24559;SDS011;12727;49.934;8.656;2023-06-05T10:09:30;4.47;;;1.33;;
24559;SDS011;12727;49.934;8.656;2023-06-05T10:11:59;4.88;;;1.52;;
24559;SDS011;12727;49.934;8.656;2023-06-05T10:14:26;4.00;;;1.50;;
24559;SDS011;12727;49.934;8.656;2023-06-05T10:16:52;2.72;;;1.83;;
24559;SDS011;12727;49.934;8.656;2023-06-05T10:19:18;2.28;;;1.25;;
24559;SDS011;12727;49.934;8.656;2023-06-05T10:21:46;4.10;;;1.50;;
24559;SDS011;12727;49.934;8.656;2023-06-05T10:24:14;2.35;;;1.20;;
24559;SDS011;12727;49.934;8.656;2023-06-05T10:29:59;3.33;;;1.30;;
24559;SDS011;12727;49.934;8.656;2023-06-05T10:38:26;3.30;;;1.52;;
24559;SDS011;12727;49.934;8.656;2023-06-05T10:40:56;7.80;;;1.50;;
24559;SDS011;12727;49.934;8.656;2023-06-05T10:43:36;4.10;;;1.50;;
24559;SDS011;12727;49.934;8.656;2023-06-05T10:46:28;3.00;;;1.40;;
24559;SDS011;12727;49.934;8.656;2023-06-05T10:54:07;2.22;;;1.50;;
24559;SDS011;12727;49.934;8.656;2023-06-05T10:59:22;2.13;;;1.52;;
24559;SDS011;12727;49.934;8.656;2023-06-05T11:07:15;2.20;;;1.55;;
24559;SDS011;12727;49.934;8.656;2023-06-05T11:17:36;2.45;;;1.63;;
24559;SDS011;12727;49.934;8.656;2023-06-05T11:20:08;3.72;;;1.52;;
24559;SDS011;12727;49.934;8.656;2023-06-05T11:27:47;4.22;;;1.45;;
24559;SDS011;12727;49.934;8.656;2023-06-05T11:30:17;3.55;;;1.60;;
24559;SDS011;12727;49.934;8.656;2023-06-05T11:32:44;2.47;;;1.70;;
24559;SDS011;12727;49.934;8.656;2023-06-05T11:35:10;2.10;;;1.23;;
24559;SDS011;12727;49.934;8.656;2023-06-05T11:37:37;3.90;;;1.70;;
24559;SDS011;12727;49.934;8.656;2023-06-05T11:40:05;2.58;;;1.60;;
24559;SDS011;12727;49.934;8.656;2023-06-05T11:42:38;2.53;;;1.50;;
24559;SDS011;12727;49.934;8.656;2023-06-05T11:45:13;2.45;;;1.38;;
24559;SDS011;12727;49.934;8.656;2023-06-05T11:47:39;2.25;;;1.52;;
24559;SDS011;12727;49.934;8.656;2023-06-05T11:50:12;4.53;;;1.30;;
24559;SDS011;12727;49.934;8.656;2023-06-05T11:52:40;2.22;;;1.48;;
24559;SDS011;12727;49.934;8.656;2023-06-05T11:55:12;6.00;;;1.67;;
24559;SDS011;12727;49.934;8.656;2023-06-05T11:57:41;5.43;;;1.60;;
24559;SDS011;12727;49.934;8.656;2023-06-05T12:00:08;3.28;;;1.60;;
24559;SDS011;12727;49.934;8.656;2023-06-05T12:02:36;3.10;;;1.38;;
24559;SDS011;12727;49.934;8.656;2023-06-05T12:05:02;2.50;;;1.52;;
24559;SDS011;12727;49.934;8.656;2023-06-05T12:07:31;4.78;;;1.50;;
24559;SDS011;12727;49.934;8.656;2023-06-05T12:10:01;5.40;;;1.45;;
24559;SDS011;12727;49.934;8.656;2023-06-05T12:12:28;2.65;;;1.50;;
24559;SDS011;12727;49.934;8.656;2023-06-05T12:14:54;2.53;;;1.50;;
24559;SDS011;12727;49.934;8.656;2023-06-05T12:17:20;3.72;;;1.60;;
24559;SDS011;12727;49.934;8.656;2023-06-05T12:19:53;2.00;;;1.52;;
24559;SDS011;12727;49.934;8.656;2023-06-05T12:22:19;2.25;;;1.40;;
24559;SDS011;12727;49.934;8.656;2023-06-05T12:24:45;3.38;;;1.48;;
24559;SDS011;12727;49.934;8.656;2023-06-05T12:27:11;1.80;;;1.30;;
24559;SDS011;12727;49.934;8.656;2023-06-05T12:29:38;2.80;;;1.33;;
24559;SDS011;12727;49.934;8.656;2023-06-05T12:32:23;3.47;;;1.45;;
24559;SDS011;12727;49.934;8.656;2023-06-05T12:34:50;1.83;;;1.40;;
24559;SDS011;12727;49.934;8.656;2023-06-05T12:39:48;2.13;;;1.20;;
24559;SDS011;12727;49.934;8.656;2023-06-05T12:42:14;3.05;;;1.30;;
24559;SDS011;12727;49.934;8.656;2023-06-05T12:44:39;2.17;;;1.45;;
24559;SDS011;12727;49.934;8.656;2023-06-05T12:47:05;2.90;;;1.70;;
24559;SDS011;12727;49.934;8.656;2023-06-05T12:49:31;5.18;;;1.75;;
24559;SDS011;12727;49.934;8.656;2023-06-05T12:51:57;2.20;;;1.40;;
24559;SDS011;12727;49.934;8.656;2023-06-05T12:54:22;5.82;;;1.60;;
24559;SDS011;12727;49.934;8.656;2023-06-05T12:56:48;3.08;;;1.50;;
24559;SDS011;12727;49.934;8.656;2023-06-05T12:59:14;1.80;;;1.15;;
24559;SDS011;12727;49.934;8.656;2023-06-05T13:01:39;2.42;;;1.63;;
24559;SDS011;12727;49.934;8.656;2023-06-05T13:04:05;2.20;;;1.52;;
24559;SDS011;12727;49.934;8.656;2023-06-05T13:06:31;2.55;;;1.40;;
24559;SDS011;12727;49.934;8.656;2023-06-05T13:08:59;4.63;;;1.45;;
24559;SDS011;12727;49.934;8.656;2023-06-05T13:11:25;2.10;;;1.40;;
24559;SDS011;12727;49.934;8.656;2023-06-05T13:13:51;2.55;;;1.40;;
24559;SDS011;12727;49.934;8.656;2023-06-05T13:16:17;2.38;;;1.58;;
24559;SDS011;12727;49.934;8.656;2023-06-05T13:18:42;3.17;;;1.58;;
24559;SDS011;12727;49.934;8.656;2023-06-05T13:21:08;2.53;;;1.30;;
24559;SDS011;12727;49.934;8.656;2023-06-05T13:23:33;3.08;;;1.42;;
24559;SDS011;12727;49.934;8.656;2023-06-05T13:25:59;3.20;;;1.60;;
24559;SDS011;12727;49.934;8.656;2023-06-05T13:28:25;5.25;;;1.50;;
24559;SDS011;12727;49.934;8.656;2023-06-05T13:30:51;3.35;;;1.42;;
24559;SDS011;12727;49.934;8.656;2023-06-05T13:33:18;1.92;;;1.40;;
24559;SDS011;12727;49.934;8.656;2023-06-05T13:35:44;3.72;;;1.27;;
24559;SDS011;12727;49.934;8.656;2023-06-05T13:38:09;1.77;;;1.27;;
24559;SDS011;12727;49.934;8.656;2023-06-05T13:40:35;2.03;;;1.60;;
24559;SDS011;12727;49.934;8.656;2023-06-05T13:43:01;2.88;;;1.48;;
24559;SDS011;12727;49.934;8.656;2023-06-05T13:45:26;2.50;;;1.60;;
24559;SDS011;12727;49.934;8.656;2023-06-05T13:47:52;2.38;;;1.50;;
24559;SDS011;12727;49.934;8.656;2023-06-05T13:50:17;1.88;;;1.38;;
24559;SDS011;12727;49.934;8.656;2023-06-05T13:52:47;2.53;;;1.45;;
24559;SDS011;12727;49.934;8.656;2023-06-05T13:55:12;3.83;;;1.60;;
24559;SDS011;12727;49.934;8.656;2023-06-05T13:57:38;4.38;;;1.70;;
24559;SDS011;12727;49.934;8.656;2023-06-05T14:00:04;5.65;;;1.60;;
24559;SDS011;12727;49.934;8.656;2023-06-05T14:02:31;2.97;;;1.20;;
24559;SDS011;12727;49.934;8.656;2023-06-05T14:04:56;3.00;;;1.35;;
24559;SDS011;12727;49.934;8.656;2023-06-05T14:07:22;2.72;;;1.70;;
24559;SDS011;12727;49.934;8.656;2023-06-05T14:09:48;2.20;;;1.50;;
24559;SDS011;12727;49.934;8.656;2023-06-05T14:12:13;2.22;;;1.40;;
24559;SDS011;12727;49.934;8.656;2023-06-05T14:14:39;1.95;;;1.48;;
24559;SDS011;12727;49.934;8.656;2023-06-05T14:17:05;2.40;;;1.58;;
24559;SDS011;12727;49.934;8.656;2023-06-05T14:19:31;2.55;;;1.35;;
24559;SDS011;12727;49.934;8.656;2023-06-05T14:21:57;2.03;;;1.63;;
24559;SDS011;12727;49.934;8.656;2023-06-05T14:24:23;2.35;;;1.42;;
24559;SDS011;12727;49.934;8.656;2023-06-05T14:26:48;3.10;;;1.80;;
24559;SDS011;12727;49.934;8.656;2023-06-05T14:29:14;3.28;;;1.58;;
24559;SDS011;12727;49.934;8.656;2023-06-05T14:31:40;2.92;;;1.67;;
24559;SDS011;12727;49.934;8.656;2023-06-05T14:34:06;4.22;;;1.65;;
24559;SDS011;12727;49.934;8.656;2023-06-05T14:36:31;3.55;;;1.52;;
24559;SDS011;12727;49.934;8.656;2023-06-05T14:38:57;2.38;;;1.80;;
24559;SDS011;12727;49.934;8.656;2023-06-05T14:41:22;3.53;;;1.50;;
24559;SDS011;12727;49.934;8.656;2023-06-05T14:43:48;2.70;;;1.70;;
24559;SDS011;12727;49.934;8.656;2023-06-05T14:46:14;2.65;;;1.38;;
24559;SDS011;12727;49.934;8.656;2023-06-05T14:48:39;4.22;;;1.30;;
24559;SDS011;12727;49.934;8.656;2023-06-05T14:51:06;4.13;;;1.58;;
24559;SDS011;12727;49.934;8.656;2023-06-05T14:53:32;1.90;;;1.40;;
24559;SDS011;12727;49.934;8.656;2023-06-05T14:55:58;1.83;;;1.13;;
24559;SDS011;12727;49.934;8.656;2023-06-05T14:58:23;2.38;;;1.58;;
24559;SDS011;12727;49.934;8.656;2023-06-05T15:00:49;3.63;;;1.55;;
24559;SDS011;12727;49.934;8.656;2023-06-05T15:03:14;3.40;;;1.40;;
24559;SDS011;12727;49.934;8.656;2023-06-05T15:05:40;2.28;;;1.50;;
24559;SDS011;12727;49.934;8.656;2023-06-05T15:08:06;2.63;;;1.50;;
24559;SDS011;12727;49.934;8.656;2023-06-05T15:10:32;2.22;;;1.27;;
24559;SDS011;12727;49.934;8.656;2023-06-05T15:12:57;3.50;;;1.70;;
24559;SDS011;12727;49.934;8.656;2023-06-05T15:15:23;4.00;;;1.45;;
24559;SDS011;12727;49.934;8.656;2023-06-05T15:17:49;7.43;;;1.33;;
24559;SDS011;12727;49.934;8.656;2023-06-05T15:20:17;2.83;;;1.38;;
24559;SDS011;12727;49.934;8.656;2023-06-05T15:22:43;2.10;;;1.80;;
24559;SDS011;12727;49.934;8.656;2023-06-05T15:25:09;5.15;;;2.00;;
24559;SDS011;12727;49.934;8.656;2023-06-05T15:27:35;2.45;;;1.48;;
24559;SDS011;12727;49.934;8.656;2023-06-05T15:30:00;3.38;;;1.50;;
24559;SDS011;12727;49.934;8.656;2023-06-05T15:32:26;3.72;;;1.65;;